• Join FlightAware (Why Join?)
  • Login
  • US Flag 
03:20AM EST


 

Airport Tracker/Info


-or-


 

Live Flight TrackerFlight Track Log ✈ AVN10 ✈ 16-Nov-2013 ✈ NVVV / VLI - YSSY / SYD

Flight Track Log - Related Links

Times and Time Zones

All times are in EST time to prevent confusion due to time zone crossing. See the AVN10 flight status page for this flight to view local times or setup timezone preferences in your user account.

Time Position Orientation Groundspeed Altitude Reporting Facility
EST Latitude Longitude Course Direction KTS MPH feet Rate Location/Type
11:34PM -18.0146 168.1592 206° Southwest  Level FlightAware Approximate
11:35PM -18.1196 168.1055 206° Southwest  Level FlightAware Approximate
11:36PM -18.2247 168.0517 206° Southwest  Level FlightAware Approximate
11:37PM -18.3297 167.9980 206° Southwest  Level FlightAware Approximate
11:38PM -18.4347 167.9441 206° Southwest  Level FlightAware Approximate
11:39PM -18.5397 167.8902 206° Southwest  Level FlightAware Approximate
11:40PM -18.6281 167.8097 204° Southwest  Level Estimated
11:41PM -18.7351 167.7602 204° Southwest  Level FlightAware Approximate
11:42PM -18.8421 167.7107 204° Southwest  Level FlightAware Approximate
11:43PM -18.9490 167.6611 204° Southwest  Level FlightAware Approximate
11:44PM -19.0559 167.6114 204° Southwest  Level FlightAware Approximate
11:45PM -19.1629 167.5616 204° Southwest  Level FlightAware Approximate
11:46PM -19.2698 167.5118 204° Southwest  Level FlightAware Approximate
11:47PM -19.3766 167.4620 204° Southwest  Level FlightAware Approximate
11:48PM -19.4835 167.4120 204° Southwest  Level FlightAware Approximate
11:49PM -19.5904 167.3620 204° Southwest  Level FlightAware Approximate
11:50PM -19.6972 167.3120 204° Southwest  Level FlightAware Approximate
11:51PM -19.8041 167.2619 204° Southwest  Level FlightAware Approximate
11:52PM -19.9109 167.2117 204° Southwest  Level FlightAware Approximate
11:53PM -20.0177 167.1614 204° Southwest  Level FlightAware Approximate
11:54PM -20.1245 167.1111 204° Southwest  Level FlightAware Approximate
11:55PM -20.2313 167.0607 204° Southwest  Level FlightAware Approximate
11:56PM -20.3381 167.0102 204° Southwest  Level FlightAware Approximate
11:57PM -20.4448 166.9596 204° Southwest  Level FlightAware Approximate
11:58PM -20.5515 166.9090 204° Southwest  Level FlightAware Approximate
11:59PM -20.6583 166.8584 204° Southwest  Level FlightAware Approximate
12:00AM -20.7650 166.8076 204° Southwest  Level FlightAware Approximate
12:01AM -20.8717 166.7568 204° Southwest  Level FlightAware Approximate
12:02AM -20.9783 166.7059 204° Southwest  Level FlightAware Approximate
12:02AM -20.8270 166.7730 224° Southwest 438 504 30,000  Level FlightAware
12:03AM -21.0632 166.6199 224° Southwest  Level Estimated
12:03AM -20.9150 166.7310 204° Southwest 438 504 30,000  Level FlightAware
12:04AM -21.0110 166.6860 204° Southwest 436 502 30,000  Level FlightAware
12:04AM -21.1010 166.6430 204° Southwest 436 502 30,000  Level FlightAware
12:05AM -21.1910 166.6000 204° Southwest 436 502 30,000  Level FlightAware
12:06AM -21.3030 166.5470 204° Southwest 436 502 30,000  Level FlightAware
12:07AM -21.3800 166.5110 204° Southwest 435 501 30,000  Level FlightAware
12:08AM -21.4690 166.4680 204° Southwest 436 502 30,000  Level FlightAware
12:08AM -21.5450 166.4320 204° Southwest 436 502 30,000  Level FlightAware
12:09AM -21.6600 166.3770 204° Southwest 435 501 30,000  Level FlightAware
12:10AM -21.7570 166.3310 204° Southwest 435 501 30,000  Level FlightAware
12:11AM -21.8530 166.2850 204° Southwest 433 498 30,000  Level FlightAware
12:12AM -21.9630 166.2320 204° Southwest 432 497 30,000  Level FlightAware
12:13AM -22.0060 166.2060 209° Southwest 423 487 30,000  Level FlightAware
12:13AM -22.0840 166.1290 222° Southwest 415 478 30,000  Level FlightAware
12:14AM -22.1510 166.0590 224° Southwest 416 479 30,000  Level FlightAware
12:15AM -22.1840 166.0250 224° Southwest 417 480 30,000  Level FlightAware
12:15AM -22.2320 165.9750 224° Southwest 418 481 30,000  Level FlightAware
12:16AM -22.3070 165.8950 225° Southwest 418 481 30,000  Level FlightAware
12:17AM -22.3800 165.8190 224° Southwest 419 482 30,000  Level FlightAware
12:18AM -22.4650 165.7300 224° Southwest 419 482 30,000  Level FlightAware
12:19AM -22.5370 165.6540 224° Southwest 420 483 30,000  Level FlightAware
12:19AM -22.5700 165.6180 225° Southwest 420 483 30,000  Level FlightAware
12:20AM -22.6550 165.5280 224° Southwest 421 484 30,000  Level FlightAware
12:21AM -22.7220 165.4580 224° Southwest 421 484 30,000  Level FlightAware
12:22AM -22.8080 165.3660 225° Southwest 420 483 30,000  Level FlightAware
12:23AM -22.8910 165.2780 224° Southwest 418 481 30,000  Level FlightAware
12:24AM -22.9670 165.1970 224° Southwest 417 480 30,000  Level FlightAware
12:25AM -23.0440 165.1140 225° Southwest 416 479 30,000  Level FlightAware
12:26AM -23.0860 165.0700 224° Southwest 415 478 30,000  Level FlightAware
12:26AM -23.1600 164.9910 224° Southwest 415 478 30,000  Level FlightAware
12:27AM -23.2330 164.9140 224° Southwest 415 478 30,000  Level FlightAware
12:28AM -23.2890 164.8550 224° Southwest 415 478 30,000  Level FlightAware
12:29AM -23.3450 164.7960 224° Southwest 415 478 30,000  Level FlightAware
12:30AM -23.3880 164.7510 224° Southwest 415 478 30,000  Level FlightAware
12:30AM -23.4160 164.7220 224° Southwest 415 478 30,000  Level FlightAware
12:31AM -23.4580 164.6770 225° Southwest 415 478 30,000  Level FlightAware
12:32AM -23.5300 164.6020 224° Southwest 415 478 30,000  Level FlightAware
12:33AM -23.6010 164.5260 224° Southwest 415 478 30,000  Level FlightAware
12:33AM -23.6580 164.4670 223° Southwest 415 478 30,000  Level FlightAware
12:34AM -23.6870 164.4360 224° Southwest 415 478 30,000  Level FlightAware
12:35AM -23.7430 164.3770 224° Southwest 415 478 30,000  Level FlightAware
12:35AM -23.7570 164.3620 224° Southwest 415 478 30,000  Level FlightAware
12:36AM -23.8140 164.3020 224° Southwest 415 478 30,000  Level FlightAware
12:36AM -23.8570 164.2560 224° Southwest 415 478 30,000 60 Level FlightAware
12:40AM -24.1211 163.9636 225° Southwest  Level FlightAware Approximate
12:41AM -24.2031 163.8724 225° Southwest  Level FlightAware Approximate
12:42AM -24.2851 163.7812 225° Southwest  Level FlightAware Approximate
12:43AM -24.3669 163.6898 225° Southwest  Level FlightAware Approximate
12:44AM -24.4488 163.5983 225° Southwest  Level FlightAware Approximate
12:44AM -24.5857 163.4370 222° Southwest 34,000  Level Aus ATC (Calculated)
12:44AM -24.5857 163.4370 222° Southwest 34,000 60 Level Aus ATC (Calculated)
12:46AM -24.7383 163.2684 225° Southwest  Level FlightAware Approximate
12:47AM -24.8185 163.1794 225° Southwest  Level FlightAware Approximate
12:47AM -24.8768 163.1132 222° Southwest 34,000  Level Aus ATC (Calculated)
12:48AM -24.9840 162.9934 222° Southwest 34,000 60 Level Aus ATC (Calculated)
12:49AM -24.9193 163.0967 55° Northeast  Level FlightAware Approximate
12:49AM -25.1395 162.8190 222° Southwest 34,000  Level Aus ATC (Calculated)
12:50AM -24.9840 162.9934 235° Southwest  Level FlightAware Approximate
12:51AM -25.0400 162.9319 46° Northeast  Level FlightAware Approximate
12:52AM -25.0173 162.9581 225° Southwest  Level FlightAware Approximate
12:53AM -25.0963 162.8694 225° Southwest  Level FlightAware Approximate
12:54AM -25.1753 162.7806 225° Southwest  Level FlightAware Approximate
12:55AM -25.2543 162.6917 226° Southwest  Level FlightAware Approximate
12:56AM -25.3331 162.6027 226° Southwest  Level FlightAware Approximate
12:57AM -25.4120 162.5136 226° Southwest  Level FlightAware Approximate
12:58AM -25.4907 162.4244 226° Southwest  Level FlightAware Approximate
12:59AM -25.5695 162.3350 226° Southwest  Level FlightAware Approximate
01:00AM -25.6481 162.2455 226° Southwest  Level FlightAware Approximate
01:01AM -25.7267 162.1560 226° Southwest  Level FlightAware Approximate
01:02AM -25.8053 162.0663 226° Southwest  Level FlightAware Approximate
01:03AM -25.8838 161.9764 226° Southwest  Level FlightAware Approximate
01:04AM -25.9622 161.8865 226° Southwest  Level FlightAware Approximate
01:05AM -26.0406 161.7964 226° Southwest  Level FlightAware Approximate
01:06AM -26.1189 161.7062 226° Southwest  Level FlightAware Approximate
01:07AM -26.1972 161.6159 226° Southwest  Level FlightAware Approximate
01:08AM -26.2754 161.5255 226° Southwest  Level FlightAware Approximate
01:09AM -26.3536 161.4349 226° Southwest  Level FlightAware Approximate
01:10AM -26.4317 161.3443 226° Southwest  Level FlightAware Approximate
01:10AM -27.1944 160.4480 221° Southwest 34,000  Level Aus ATC (Calculated)
01:12AM -27.3261 160.2915 227° Southwest  Level FlightAware Approximate
01:12AM -27.3940 160.2106 220° Southwest 34,000  Level Aus ATC (Calculated)
01:13AM -27.5019 160.0816 220° Southwest 34,000 120 Level Aus ATC (Calculated)
01:14AM -27.5254 160.0535 227° Southwest  Level FlightAware Approximate
01:14AM -27.5963 159.9686 220° Southwest 34,000  Level Aus ATC (Calculated)
01:15AM -27.6788 159.8695 219° Southwest 34,000 120 Level Aus ATC (Calculated)
01:16AM -27.8140 159.7066 219° Southwest 34,000 120 Level Aus ATC (Calculated)
01:18AM -27.9558 159.5351 227° Southwest  Level FlightAware Approximate
01:19AM -28.0331 159.4413 227° Southwest  Level FlightAware Approximate
01:19AM -28.1444 159.3059 217° Southwest 34,000  Level Aus ATC (Calculated)
01:20AM -28.1103 159.3474 227° Southwest  Level FlightAware Approximate
01:20AM -28.1993 159.2389 217° Southwest 34,000  Level Aus ATC (Calculated)
01:21AM -28.2266 159.2056 227° Southwest  Level FlightAware Approximate
01:22AM -28.3120 159.1011 227° Southwest  Level FlightAware Approximate
01:23AM -28.2296 159.2020 47° Northeast  Level FlightAware Approximate
01:23AM -28.4582 158.9214 214° Southwest 36,000  Level Aus ATC (Calculated)
01:23AM -28.4989 158.8712 214° Southwest 36,000 60 Level Aus ATC (Calculated)
01:25AM -28.4043 158.9877 47° Northeast  Level FlightAware Approximate
01:26AM -28.3220 159.0888 47° Northeast  Level FlightAware Approximate
01:27AM -28.2396 159.1897 47° Northeast  Level FlightAware Approximate
01:28AM -28.3220 159.0888 227° Southwest  Level FlightAware Approximate
01:28AM -28.9458 158.3166 203° Southwest 36,000  Level Aus ATC (Calculated)
01:29AM -28.2396 159.1897 47° Northeast  Level FlightAware Approximate
01:30AM -28.8435 158.4442 48° Northeast  Level FlightAware Approximate
01:31AM -28.7616 158.5462 47° Northeast  Level FlightAware Approximate
01:32AM -28.6796 158.6480 47° Northeast  Level FlightAware Approximate
01:33AM -28.5975 158.7496 47° Northeast  Level FlightAware Approximate
01:33AM -29.3500 157.8083 163° South 36,000  Level Aus ATC (Calculated)
01:34AM -29.3904 157.7572 155° Southeast 36,000 180 Level Aus ATC (Calculated)
01:35AM -29.5514 157.5526 116° Southeast 36,000 180 Level Aus ATC (Calculated)
01:36AM -29.2546 157.9288 48° Northeast  Level FlightAware Approximate
01:36AM -29.6318 157.4501 101° East 36,000  Level Aus ATC (Calculated)
01:37AM -29.6435 157.4292 227° Southwest  Level Estimated
01:38AM -29.7345 157.3187 228° Southwest  Level FlightAware Approximate
01:39AM -29.8155 157.2148 228° Southwest  Level FlightAware Approximate
01:40AM -29.8964 157.1107 228° Southwest  Level FlightAware Approximate
01:41AM -29.9773 157.0065 228° Southwest  Level FlightAware Approximate
01:41AM -30.0327 156.9349 70° East 36,000  Level Aus ATC (Calculated)
01:43AM -30.1416 156.7938 228° Southwest  Level FlightAware Approximate
01:44AM -30.2222 156.6890 228° Southwest  Level FlightAware Approximate
01:44AM -29.7157 157.9353 228° Southwest 452 520 38,000  Level Aus ATC (RADAR)
01:44AM -29.7579 157.8876 224° Southwest 433 498 38,000  Level Aus ATC (RADAR)
01:45AM -29.8083 157.8311 224° Southwest 432 497 38,000  Level Aus ATC (RADAR)
01:46AM -29.8556 157.7759 225° Southwest 425 489 38,000  Level Aus ATC (RADAR)
01:46AM -29.9235 157.6973 225° Southwest 420 483 38,000  Level Aus ATC (RADAR)
01:47AM -29.9717 157.6419 225° Southwest 419 482 38,000  Level Aus ATC (RADAR)
01:48AM -30.0137 157.5937 225° Southwest 421 484 38,000  Level Aus ATC (RADAR)
01:48AM -30.0627 157.5375 225° Southwest 422 486 38,000  Level Aus ATC (RADAR)
01:49AM -30.1107 157.4822 225° Southwest 421 484 38,000  Level Aus ATC (RADAR)
01:49AM -30.1512 157.4352 225° Southwest 418 481 38,000  Level Aus ATC (RADAR)
01:50AM -30.1981 157.3808 225° Southwest 415 478 38,000  Level Aus ATC (RADAR)
01:50AM -30.2431 157.3281 225° Southwest 407 468 38,000  Level Aus ATC (RADAR)
01:51AM -30.2879 157.2755 225° Southwest 401 461 38,000  Level Aus ATC (RADAR)
01:52AM -30.3578 157.1929 226° Southwest 396 456 38,000  Level Aus ATC (RADAR)
01:52AM -30.3831 157.1640 225° Southwest 395 455 38,000  Level Aus ATC (RADAR)
01:53AM -30.4259 157.1119 226° Southwest 405 466 38,000 -120 Level Aus ATC (RADAR)
01:54AM -30.4905 157.0355 226° Southwest 395 455 37,900  Descending Aus ATC (RADAR)
01:54AM -30.5360 156.9826 225° Southwest 397 457 38,000  Climbing Aus ATC (RADAR)
01:55AM -30.5881 156.9212 225° Southwest 399 459 37,900  Descending Aus ATC (RADAR)
01:55AM -30.6206 156.8829 225° Southwest 400 460 38,000 60 Climbing Aus ATC (RADAR)
01:56AM -30.6667 156.8287 225° Southwest 402 463 38,000  Level Aus ATC (RADAR)
01:57AM -30.7404 156.7418 225° Southwest 410 472 38,000 -120 Level Aus ATC (RADAR)
01:57AM -30.7740 156.7020 226° Southwest 413 475 37,900  Descending Aus ATC (RADAR)
01:58AM -30.8336 156.6291 226° Southwest 415 478 38,000  Climbing Aus ATC (RADAR)
01:58AM -30.8598 156.5825 237° Southwest 415 478 37,900  Descending Aus ATC (RADAR)
01:59AM -30.8914 156.5167 241° Southwest 405 466 38,000 60 Climbing Aus ATC (RADAR)
02:00AM -30.9281 156.4416 240° Southwest 398 458 38,000  Level Aus ATC (RADAR)
02:00AM -30.9604 156.3759 240° Southwest 399 459 38,000 -120 Level Aus ATC (RADAR)
02:01AM -30.9922 156.3095 241° Southwest 399 459 37,900  Descending Aus ATC (RADAR)
02:01AM -31.0292 156.2342 240° Southwest 399 459 38,000 60 Climbing Aus ATC (RADAR)
02:02AM -31.0680 156.1736 233° Southwest 396 456 38,000  Level Aus ATC (RADAR)
02:03AM -31.1186 156.1082 228° Southwest 404 465 38,000  Level Aus ATC (RADAR)
02:03AM -31.1501 156.0675 228° Southwest 405 466 38,000  Level Aus ATC (RADAR)
02:04AM -31.1932 156.0101 229° Southwest 403 464 38,000  Level Aus ATC (RADAR)
02:04AM -31.2486 155.9500 223° Southwest 407 468 38,000  Level Aus ATC (RADAR)
02:05AM -31.2761 155.9192 224° Southwest 409 471 38,000  Level Aus ATC (RADAR)
02:05AM -31.3233 155.8648 225° Southwest 409 471 38,000  Level Aus ATC (RADAR)
02:06AM -31.3850 155.7937 225° Southwest 414 476 38,000 -120 Level Aus ATC (RADAR)
02:06AM -31.4200 155.7537 224° Southwest 419 482 37,900  Descending Aus ATC (RADAR)
02:07AM -31.4892 155.6741 224° Southwest 419 482 38,000 60 Climbing Aus ATC (RADAR)
02:08AM -31.5375 155.6184 225° Southwest 419 482 38,000  Level Aus ATC (RADAR)
02:08AM -31.5862 155.5624 224° Southwest 421 484 38,000  Level Aus ATC (RADAR)
02:09AM -31.6354 155.5058 224° Southwest 424 488 38,000  Level Aus ATC (RADAR)
02:10AM -31.6775 155.4570 225° Southwest 426 490 38,000  Level Aus ATC (RADAR)
02:10AM -31.7046 155.4255 225° Southwest 431 496 38,000  Level FlightAware ADS-B (YPLB)
02:10AM -31.7273 155.3995 225° Southwest 429 494 38,000  Level Aus ATC (RADAR)
02:11AM -31.7640 155.3569 224° Southwest 433 498 38,000  Level FlightAware ADS-B (YPLB)
02:11AM -31.8178 155.2943 225° Southwest 434 499 38,000  Level FlightAware ADS-B (YPLB)
02:12AM -31.8520 155.2550 224° Southwest 434 499 38,000  Level FlightAware
02:12AM -31.9233 155.1720 225° Southwest 429 494 38,000  Level FlightAware ADS-B (YPLB)
02:13AM -31.9631 155.1257 225° Southwest 429 494 38,000  Level FlightAware ADS-B (YPLB)
02:13AM -32.0080 155.0734 225° Southwest 431 496 38,000  Level FlightAware ADS-B (YPLB)
02:14AM -32.0822 154.9869 225° Southwest 434 499 38,000  Level Aus ATC (RADAR)
02:15AM -32.1057 154.9591 225° Southwest 437 503 38,000  Level FlightAware ADS-B (YPLB)
02:15AM -32.1504 154.9069 225° Southwest 438 504 38,000  Level FlightAware ADS-B (YPLB)
02:16AM -32.2255 154.8190 225° Southwest 439 505 38,000  Level Aus ATC (RADAR)
02:16AM -32.2385 154.8032 225° Southwest 440 506 38,000  Level FlightAware ADS-B (YPLB)
02:17AM -32.2817 154.7522 225° Southwest 441 507 38,000  Level FlightAware ADS-B (YPLB)
02:17AM -32.3210 154.7060 225° Southwest 442 509 38,000  Level FlightAware
02:17AM -32.3554 154.6658 225° Southwest 442 509 38,000  Level Aus ATC (RADAR)
02:18AM -32.3841 154.6317 225° Southwest 440 506 38,000  Level Aus ATC (RADAR)
02:18AM -32.4118 154.5985 225° Southwest 442 509 38,000  Level FlightAware ADS-B (YPLB)
02:19AM -32.4705 154.5288 225° Southwest 443 510 38,000  Level FlightAware ADS-B (YPLB)
02:19AM -32.5274 154.4614 225° Southwest 444 511 38,000  Level FlightAware ADS-B (YPLB)
02:20AM -32.5716 154.4090 225° Southwest 444 511 38,000  Level FlightAware ADS-B (YPLB)
02:21AM -32.6282 154.3417 225° Southwest 444 511 38,000  Level FlightAware ADS-B (YPLB)
02:21AM -32.6814 154.2784 225° Southwest 444 511 38,000  Level FlightAware ADS-B (YPLB)
02:22AM -32.7390 154.2097 225° Southwest 445 512 38,000  Level FlightAware ADS-B (YPLB)
02:22AM -32.7850 154.1547 225° Southwest 446 513 38,000  Level FlightAware ADS-B (YPLB)
02:23AM -32.8415 154.0872 225° Southwest 448 516 38,000  Level FlightAware ADS-B (YPLB)
02:23AM -32.8850 154.0350 225° Southwest 447 514 38,000  Level FlightAware ADS-B (YPLB)
02:24AM -32.9267 153.9846 225° Southwest 447 514 38,000  Level FlightAware ADS-B (YPLB)
02:24AM -32.9668 153.9224 232° Southwest 443 510 38,000  Level FlightAware ADS-B (YPLB)
02:25AM -32.9999 153.8666 232° Southwest 445 512 38,000  Level Aus ATC (RADAR)
02:25AM -33.0141 153.8418 232° Southwest 446 513 38,000  Level FlightAware ADS-B (YPLB)
02:26AM -33.0489 153.7822 235° Southwest 447 514 38,000  Level FlightAware ADS-B (YPLB)
02:26AM -33.0853 153.7201 235° Southwest 448 516 38,000  Level FlightAware ADS-B (YPLB)
02:27AM -33.1317 153.6414 235° Southwest 449 517 38,000  Level FlightAware ADS-B (YPLB)
02:27AM -33.1687 153.5783 235° Southwest 449 517 38,000 60 Level FlightAware ADS-B (YPLB)
02:28AM -33.2035 153.5192 235° Southwest 438 504 38,100  Climbing Aus ATC (RADAR)
02:28AM -33.2140 153.5005 235° Southwest 449 517 38,000 -180 Descending FlightAware ADS-B (YPLB)
02:28AM -33.2503 153.4385 235° Southwest 448 516 38,000 60 Level FlightAware ADS-B (YPLB)
02:29AM -33.2921 153.3673 235° Southwest 434 499 38,100  Climbing Aus ATC (RADAR)
02:29AM -33.2990 153.3547 235° Southwest 449 517 38,000 -180 Descending FlightAware ADS-B (YPLB)
02:30AM -33.3354 153.2922 235° Southwest 449 517 38,000 -120 Level FlightAware ADS-B (YPLB)
02:30AM -33.3730 153.2283 235° Southwest 449 517 37,900 -360 Descending Aus ATC (RADAR)
02:30AM -33.3792 153.2168 235° Southwest 447 514 37,800 -2,400 Descending FlightAware ADS-B (YPLB)
02:31AM -33.4153 153.1543 235° Southwest 448 516 36,500 -2,520 Descending FlightAware ADS-B (YPLB)
02:31AM -33.4140 153.1572 235° Southwest 448 516 36,500 -2,820 Level Aus ATC (RADAR)
02:31AM -33.4512 153.0918 235° Southwest 449 517 35,100 -3,300 Descending FlightAware ADS-B (YPLB)
02:32AM -33.4879 153.0284 235° Southwest 461 531 33,200 -2,760 Descending FlightAware ADS-B (YPLB)
02:32AM -33.5352 152.9464 235° Southwest 451 519 31,900 -2,220 Descending FlightAware ADS-B (YPLB)
02:33AM -33.5709 152.8837 236° Southwest 446 513 30,700 -2,760 Descending FlightAware ADS-B (YPLB)
02:33AM -33.5983 152.8203 243° Southwest 447 514 29,200 -2,700 Descending FlightAware ADS-B (YPLB)
02:34AM -33.6198 152.7515 249° West 442 509 28,000 -2,160 Descending FlightAware ADS-B (YPLB)
02:35AM -33.6489 152.6598 249° West 430 495 26,700 -1,980 Descending FlightAware ADS-B (YPLB)
02:35AM -33.6769 152.5719 249° West 419 482 25,400 -1,980 Descending FlightAware ADS-B (YPLB)
02:36AM -33.6981 152.5051 249° West 411 473 24,400 -1,920 Descending FlightAware ADS-B (YPLB)
02:36AM -33.7179 152.4420 249° West 402 463 23,500 -1,980 Descending FlightAware ADS-B (YPLB)
02:37AM -33.7372 152.3794 250° West 394 453 22,400 -2,400 Descending FlightAware ADS-B (YPLB)
02:37AM -33.7694 152.3063 250° West 381 438 20,700 -2,580 Descending Aus ATC (RADAR)
02:38AM -33.7921 152.2673 235° Southwest 391 450 19,900 -2,040 Descending FlightAware ADS-B (YPLB)
02:38AM -33.7906 152.2699 235° Southwest 387 445 20,000 -2,280 Climbing Aus ATC (RADAR)
02:38AM -33.8173 152.2134 241° Southwest 388 447 18,800 -2,580 Descending FlightAware ADS-B (YPLB)
02:39AM -33.8357 152.1527 241° Southwest 388 447 17,500 -2,460 Descending Aus ATC (RADAR)
02:39AM -33.8376 152.1409 241° Southwest 388 447 17,300 -2,280 Descending FlightAware ADS-B (YWST)
02:39AM -33.8566 152.0713 241° Southwest 378 435 16,000 -2,460 Descending Aus ATC (RADAR)
02:40AM -33.8589 152.0633 241° Southwest 386 444 15,800 -2,520 Descending FlightAware ADS-B (YPLB)
02:40AM -33.8767 152.0010 251° West 383 441 14,600 -2,280 Descending FlightAware ADS-B (YPLB)
02:41AM -33.8931 151.9407 252° West 378 435 13,500 -2,220 Descending FlightAware ADS-B (YPLB)
02:41AM -33.9133 151.8662 252° West 361 415 12,100 -2,220 Descending FlightAware ADS-B (YPLB)
02:42AM -33.9291 151.8062 252° West 347 399 11,000 -1,680 Descending FlightAware ADS-B (YPLB)
02:42AM -33.9433 151.7517 253° West 335 386 10,400 -780 Descending FlightAware ADS-B (YPLB)
02:43AM -33.9552 151.7002 254° West 315 362 10,200 -480 Descending FlightAware ADS-B (YWST)
02:43AM -33.9585 151.6850 255° West 303 349 10,100 -660 Descending FlightAware ADS-B (YPLB)
02:43AM -33.9623 151.6683 255° West 294 338 10,000 -600 Descending FlightAware ADS-B (YPLB)
02:43AM -33.9657 151.6541 254° West 290 334 9,900 -1,200 Descending FlightAware ADS-B (YPLB)
02:43AM -33.9717 151.6303 253° West 289 333 9,500 -1,500 Descending FlightAware ADS-B (YWST)
02:44AM -33.9734 151.6238 252° West 288 331 9,400 -1,320 Descending FlightAware ADS-B (YPLB)
02:44AM -33.9778 151.6065 253° West 287 330 9,200 -1,680 Descending FlightAware ADS-B (YPLB)
02:44AM -33.9801 151.5974 253° West 289 333 8,900 -2,160 Descending FlightAware ADS-B
02:44AM -33.9820 151.5813 262° West 291 335 8,600 -900 Descending FlightAware ADS-B
02:44AM -33.9797 151.5656 280° West 289 333 8,600  Level FlightAware ADS-B (YWST)
02:44AM -33.9783 151.5614 292° West 288 331 8,600 -600 Level FlightAware ADS-B
02:45AM -33.9681 151.5410 301° West 282 325 8,400 -600 Descending FlightAware ADS-B (YWST)
02:45AM -33.9461 151.5087 309° West 288 331 8,200 -600 Descending FlightAware ADS-B (YPLB)
02:45AM -33.9285 151.4853 312° West 297 342 8,000 -900 Descending FlightAware ADS-B (YPLB)
02:45AM -33.9166 151.4704 314° West 295 339 7,700 -660 Descending FlightAware ADS-B (YWST)
02:46AM -33.8946 151.4425 314° West 279 321 7,600 -480 Descending FlightAware ADS-B (YWST)
02:46AM -33.8791 151.4227 313° West 278 320 7,400 -600 Descending FlightAware ADS-B
02:46AM -33.8649 151.4043 313° West 283 326 7,300 -600 Descending FlightAware ADS-B (YPLB)
02:47AM -33.8494 151.3841 313° West 288 331 7,100 -660 Descending FlightAware ADS-B (YWST)
02:47AM -33.8384 151.3699 313° West 289 333 7,000 -900 Descending FlightAware ADS-B (YPLB)
02:47AM -33.8259 151.3535 312° West 289 333 6,700 -1,200 Descending FlightAware ADS-B
02:47AM -33.8196 151.3452 313° West 288 331 6,600 -1,440 Descending FlightAware ADS-B (YPLB)
02:47AM -33.8074 151.3294 313° West 287 330 6,200 -1,620 Descending FlightAware ADS-B
02:48AM -33.8026 151.3230 312° West 286 329 6,100 -1,200 Descending FlightAware ADS-B (YPLB)
02:48AM -33.7892 151.3060 313° West 284 327 5,800 -660 Descending FlightAware ADS-B
02:48AM -33.7723 151.2843 313° West 267 307 5,700 -360 Descending FlightAware ADS-B
02:48AM -33.7580 151.2660 313° West 258 297 5,600 -420 Descending FlightAware ADS-B (YWST)
02:49AM -33.7456 151.2503 313° West 249 287 5,500 -960 Descending FlightAware ADS-B
02:49AM -33.7327 151.2337 313° West 249 287 5,100 -1,200 Descending FlightAware ADS-B (YWST)
02:49AM -33.7179 151.2144 313° West 256 295 4,800 -1,080 Descending FlightAware ADS-B
02:50AM -33.7071 151.2004 313° West 258 297 4,500 -1,140 Descending FlightAware ADS-B
02:50AM -33.6923 151.1812 313° West 259 298 4,200 -1,380 Descending FlightAware ADS-B (YWST)
02:50AM -33.6877 151.1749 311° West 259 298 4,000 -1,320 Descending FlightAware ADS-B
02:50AM -33.6826 151.1644 300° West 256 295 3,900 -360 Descending FlightAware ADS-B
02:50AM -33.6804 151.1521 283° West 246 283 3,900  Level FlightAware ADS-B
02:50AM -33.6807 151.1451 267° West 238 274 3,900  Level FlightAware ADS-B (YWST)
02:50AM -33.6843 151.1328 251° West 231 266 3,900  Level FlightAware ADS-B
02:50AM -33.6860 151.1297 236° Southwest 226 260 3,900  Level FlightAware ADS-B
02:51AM -33.6909 151.1237 225° Southwest 224 258 3,900  Level FlightAware ADS-B
02:51AM -33.6935 151.1218 212° Southwest 219 252 3,900  Level FlightAware ADS-B
02:51AM -33.6994 151.1194 199° South 214 246 3,900  Level FlightAware ADS-B (YWST)
02:51AM -33.7073 151.1196 178° South 211 243 3,900  Level FlightAware ADS-B (YPLB)
02:51AM -33.7116 151.1213 162° South 209 241 3,900  Level FlightAware ADS-B
02:51AM -33.7106 151.1208 339° North 206 237 3,900  Level FlightAware ADS-B (YPLB)
02:51AM -33.7252 151.1281 157° South 206 237 3,900  Level FlightAware ADS-B (YPLB)
02:51AM -33.7256 151.1283 159° South 209 241 3,900  Level FlightAware ADS-B
02:52AM -33.7365 151.1322 163° South 209 241 3,900 -180 Level FlightAware ADS-B
02:52AM -33.7578 151.1391 165° South 206 237 3,800 -780 Descending FlightAware ADS-B (YWST)
02:52AM -33.7758 151.1435 168° South 206 237 3,400 -1,200 Descending FlightAware ADS-B (YWST)
02:52AM -33.7911 151.1472 169° South 191 220 3,100 -900 Descending FlightAware ADS-B
02:53AM -33.8047 151.1507 168° South 175 201 2,900 -960 Descending FlightAware ADS-B (YWST)
02:53AM -33.8077 151.1514 167° South 173 199 2,700 -1,080 Descending FlightAware ADS-B
02:53AM -33.8244 151.1557 168° South 154 177 2,400 -780 Descending FlightAware ADS-B (YWST)
02:54AM -33.8398 151.1598 168° South 141 162 2,200 -780 Descending FlightAware ADS-B (YWST)
02:54AM -33.8556 151.1639 168° South 137 158 1,900 -840 Descending FlightAware ADS-B (YPLB)
02:54AM -33.8631 151.1658 168° South 136 157 1,700 -720 Descending FlightAware ADS-B
02:54AM -33.8706 151.1678 168° South 136 157 1,600 -600 Descending FlightAware ADS-B
02:55AM -33.8810 151.1705 168° South 133 153 1,400 -720 Descending FlightAware ADS-B
02:55AM -33.8909 151.1731 168° South 134 154 1,200 -780 Descending FlightAware ADS-B (YPLB)
02:55AM -33.9002 151.1755 168° South 134 154 1,000 -840 Descending FlightAware ADS-B
02:55AM -33.8927 151.1736 348° North 132 152 900 -660 Descending FlightAware ADS-B (YPLB)
02:56AM -33.9152 151.1794 168° South 135 155 700 -720 Descending FlightAware ADS-B
02:56AM -33.9250 151.1819 168° South 136 157 500 -780 Descending FlightAware ADS-B (YWST)
02:56AM -33.9368 151.1849 168° South 137 158 300 -720 Descending FlightAware ADS-B
02:57AM -33.9610 151.1910 168° South 105 121 -480 Descending FlightAware